Time;durP1;ratioP1;P1;durP2;ratioP2;P2;SDS_P1;SDS_P2;PMS_P1;PMS_P2;Temp;Humidity;BMP_temperature;BMP_pressure;BME280_temperature;BME280_humidity;BME280_pressure;Samples;Min_cycle;Max_cycle;Signal;HPM_P1;HPM_P2
2021/09/02 00:01:52;;;;;;;5.63;4.63;;;10.00;99.90;;;;;;5014287;28;20460;-91
2021/09/02 00:04:19;;;;;;;7.23;4.87;;;;;;;;;;5014476;28;20499;-90
2021/09/02 00:06:49;;;;;;;7.33;4.90;;;;;;;;;;5011805;28;20456;-91
2021/09/02 00:09:16;;;;;;;6.50;4.97;;;;;;;;;;5014417;28;20456;-91
2021/09/02 00:11:44;;;;;;;5.97;5.33;;;;;;;;;;5014659;28;20453;-89
2021/09/02 00:14:11;;;;;;;7.53;5.20;;;;;;;;;;5013887;28;20455;-91
2021/09/02 00:16:41;;;;;;;7.67;5.67;;;;;;;;;;5012886;28;20456;-91
2021/09/02 00:19:12;;;;;;;5.10;4.60;;;10.00;99.90;;;;;;5014265;28;20460;-92
2021/09/02 00:21:39;;;;;;;17.33;5.23;;;;;;;;;;5014416;28;20809;-90
2021/09/02 00:24:07;;;;;;;8.00;4.93;;;;;;;;;;5014021;28;20502;-90
2021/09/02 00:26:36;;;;;;;11.27;6.37;;;;;;;;;;5013756;28;20487;-92
2021/09/02 00:29:03;;;;;;;6.07;4.97;;;;;;;;;;5013553;28;20452;-90
2021/09/02 00:31:31;;;;;;;6.20;4.90;;;;;;;;;;5013962;28;20463;-90
2021/09/02 00:33:58;;;;;;;7.03;5.40;;;;;;;;;;5013888;28;20456;-90
2021/09/02 00:36:27;;;;;;;6.93;5.17;;;9.80;99.90;;;;;;5013799;28;20445;-91
2021/09/02 00:38:54;;;;;;;6.23;5.10;;;;;;;;;;5013997;28;20463;-90
2021/09/02 00:41:21;;;;;;;6.60;4.67;;;;;;;;;;5013633;28;20460;-88
2021/09/02 00:43:50;;;;;;;8.27;6.00;;;;;;;;;;5012739;28;20544;-90
2021/09/02 00:46:21;;;;;;;6.80;5.70;;;;;;;;;;5013770;28;20876;-91
2021/09/02 00:48:50;;;;;;;7.30;5.33;;;9.80;99.90;;;;;;5013560;28;20484;-91
2021/09/02 00:51:20;;;;;;;7.73;5.10;;;9.70;99.90;;;;;;5013594;28;20929;-90
2021/09/02 00:53:48;;;;;;;7.77;5.40;;;;;;;;;;5013685;28;20460;-89
2021/09/02 00:56:15;;;;;;;8.30;5.50;;;;;;;;;;5013834;28;20464;-90
2021/09/02 00:58:43;;;;;;;6.73;4.93;;;;;;;;;;5012691;28;20451;-88
2021/09/02 01:01:11;;;;;;;7.37;5.10;;;9.70;99.90;;;;;;5013581;28;20459;-93
2021/09/02 01:03:38;;;;;;;6.00;5.37;;;;;;;;;;5013039;28;20526;-90
2021/09/02 01:06:06;;;;;;;9.40;5.13;;;;;;;;;;5013586;28;20459;-90
2021/09/02 01:08:36;;;;;;;10.90;5.30;;;9.60;99.90;;;;;;5013495;28;20452;-88
2021/09/02 01:11:05;;;;;;;6.93;5.40;;;;;;;;;;5013528;28;20456;-89
2021/09/02 01:13:33;;;;;;;6.43;5.40;;;;;;;;;;5012473;28;20498;-91
2021/09/02 01:16:00;;;;;;;6.80;5.70;;;;;;;;;;5012018;28;20460;-89
2021/09/02 01:18:27;;;;;;;6.00;5.03;;;;;;;;;;5013346;28;20502;-92
2021/09/02 01:20:54;;;;;;;8.13;5.50;;;;;;;;;;5025152;28;20447;-91
2021/09/02 01:23:23;;;;;;;5.53;4.90;;;9.50;99.90;;;;;;5037129;28;20535;-89
2021/09/02 01:25:50;;;;;;;7.10;5.63;;;;;;;;;;5021182;28;20456;-91
2021/09/02 01:28:17;;;;;;;8.23;5.53;;;;;;;;;;5013231;28;20456;-90
2021/09/02 01:30:45;;;;;;;7.43;5.73;;;;;;;;;;5013580;28;20447;-92
2021/09/02 01:33:13;;;;;;;5.33;4.83;;;;;;;;;;5013585;28;20452;-91
2021/09/02 01:35:41;;;;;;;6.60;5.70;;;;;;;;;;5013700;28;20798;-90
2021/09/02 01:38:10;;;;;;;6.87;5.53;;;;;;;;;;5013687;28;20440;-89
2021/09/02 01:40:40;;;;;;;7.33;5.33;;;9.40;99.90;;;;;;5013227;28;20456;-92
2021/09/02 01:43:08;;;;;;;5.50;4.90;;;9.30;99.90;;;;;;5008810;28;20480;-92
2021/09/02 01:45:36;;;;;;;6.20;5.23;;;;;;;;;;5013519;28;20460;-91
2021/09/02 01:48:07;;;;;;;9.17;4.93;;;9.30;99.90;;;;;;5013378;28;20464;-91
2021/09/02 01:50:40;;;;;;;5.90;4.80;;;9.30;99.90;;;;;;5013194;28;20452;-91
2021/09/02 01:53:13;;;;;;;6.63;5.70;;;9.30;99.90;;;;;;5016705;28;20547;-90
2021/09/02 01:55:43;;;;;;;7.27;5.27;;;9.20;99.90;;;;;;5016736;28;20467;-91
2021/09/02 01:58:10;;;;;;;7.60;5.30;;;;;;;;;;5016209;28;20460;-92
2021/09/02 02:00:37;;;;;;;6.40;5.73;;;;;;;;;;5016566;28;20823;-89
2021/09/02 02:03:04;;;;;;;5.90;5.30;;;;;;;;;;5016297;28;20487;-89
2021/09/02 02:05:32;;;;;;;8.33;4.73;;;;;;;;;;5016653;28;20820;-91
2021/09/02 02:07:59;;;;;;;6.10;5.30;;;;;;;;;;5016216;28;20448;-90
2021/09/02 02:10:27;;;;;;;6.80;5.97;;;;;;;;;;5016362;28;20452;-89
2021/09/02 02:12:57;;;;;;;6.00;4.77;;;;;;;;;;5015800;28;20445;-89
2021/09/02 02:15:27;;;;;;;5.80;5.00;;;9.10;99.90;;;;;;5016320;28;20459;-91
2021/09/02 02:17:54;;;;;;;11.33;5.37;;;;;;;;;;5015094;28;20460;-91
2021/09/02 02:20:22;;;;;;;7.90;5.03;;;;;;;;;;5016034;28;20455;-91
2021/09/02 02:22:49;;;;;;;7.23;4.70;;;;;;;;;;5016148;28;20484;-90
2021/09/02 02:25:17;;;;;;;6.20;4.77;;;;;;;;;;5015024;28;20444;-91
2021/09/02 02:31:12;;;;;;;8.07;5.53;;;;;;;;;;4957305;29;20502;-88
2021/09/02 02:33:39;;;;;;;7.10;5.20;;;;;;;;;;4958059;29;20528;-87
2021/09/02 02:36:07;;;;;;;7.43;5.43;;;;;;;;;;4957622;28;20934;-90
2021/09/02 02:38:35;;;;;;;5.83;5.23;;;8.80;99.90;;;;;;4957635;28;20451;-92
2021/09/02 02:41:03;;;;;;;8.93;5.27;;;;;;;;;;4957558;28;20466;-88
2021/09/02 02:43:30;;;;;;;7.80;5.47;;;;;;;;;;4956514;29;20485;-92
2021/09/02 02:45:58;;;;;;;8.77;5.40;;;;;;;;;;4958323;28;20459;-89
2021/09/02 02:48:27;;;;;;;8.63;5.17;;;8.90;99.90;;;;;;4957090;28;20463;-90
2021/09/02 02:50:54;;;;;;;6.00;5.40;;;;;;;;;;4956604;29;20455;-89
2021/09/02 02:53:21;;;;;;;6.87;6.00;;;;;;;;;;4956853;28;20447;-89
2021/09/02 02:55:48;;;;;;;10.07;5.30;;;;;;;;;;4957507;28;20451;-89
2021/09/02 02:58:15;;;;;;;6.10;5.33;;;;;;;;;;4955914;28;20809;-88
2021/09/02 03:00:42;;;;;;;6.93;5.10;;;;;;;;;;4956786;28;20455;-88
2021/09/02 03:03:10;;;;;;;5.87;5.07;;;;;;;;;;4955899;28;20490;-89
2021/09/02 03:05:38;;;;;;;6.47;5.20;;;8.70;99.90;;;;;;4956647;28;20985;-88
2021/09/02 03:08:05;;;;;;;7.73;5.30;;;;;;;;;;4956301;29;20787;-88
2021/09/02 03:10:32;;;;;;;8.33;6.23;;;;;;;;;;4956571;28;20466;-89
2021/09/02 03:12:59;;;;;;;8.33;5.50;;;;;;;;;;4955262;29;20949;-92
2021/09/02 03:15:27;;;;;;;6.50;5.27;;;;;;;;;;4956900;28;20450;-91
2021/09/02 03:17:54;;;;;;;7.40;6.23;;;;;;;;;;4956368;29;20450;-89
2021/09/02 03:20:21;;;;;;;7.87;5.60;;;;;;;;;;4957312;28;20458;-92
2021/09/02 03:22:49;;;;;;;7.80;6.00;;;8.70;99.90;;;;;;4957169;28;20455;-91
2021/09/02 03:25:16;;;;;;;7.57;6.27;;;;;;;;;;4954826;29;20447;-92
2021/09/02 03:27:43;;;;;;;6.27;5.67;;;;;;;;;;4956052;28;20471;-90
2021/09/02 03:30:12;;;;;;;6.20;5.60;;;8.80;99.90;;;;;;4983009;28;20492;-92
2021/09/02 03:32:39;;;;;;;7.20;5.27;;;;;;;;;;4995723;28;20429;-92
2021/09/02 03:35:08;;;;;;;8.03;6.10;;;8.70;99.90;;;;;;4995781;28;20437;-94
2021/09/02 03:37:35;;;;;;;6.63;6.03;;;;;;;;;;4995680;28;20453;-90
2021/09/02 03:40:05;;;;;;;15.00;5.70;;;8.60;99.90;;;;;;4995831;28;20445;-92
2021/09/02 03:42:32;;;;;;;6.60;5.77;;;;;;;;;;4991255;28;20453;-91
2021/09/02 03:44:59;;;;;;;7.20;5.77;;;;;;;;;;4995418;28;20866;-91
2021/09/02 03:47:26;;;;;;;6.57;5.80;;;;;;;;;;4994836;28;20480;-89
2021/09/02 03:49:53;;;;;;;7.87;6.13;;;;;;;;;;4994958;28;20936;-92
2021/09/02 03:52:20;;;;;;;6.73;5.90;;;;;;;;;;4995064;28;20457;-92
2021/09/02 03:54:47;;;;;;;6.23;5.47;;;;;;;;;;4995192;28;20449;-93
2021/09/02 03:57:15;;;;;;;8.00;6.00;;;8.50;99.90;;;;;;4994016;28;20453;-90
2021/09/02 03:59:43;;;;;;;7.70;6.20;;;;;;;;;;4994952;28;20449;-91
2021/09/02 04:02:10;;;;;;;7.77;6.60;;;;;;;;;;4994660;28;20484;-89
2021/09/02 04:04:37;;;;;;;6.90;5.90;;;;;;;;;;4994929;28;20489;-92
2021/09/02 04:07:05;;;;;;;7.50;6.47;;;;;;;;;;4994791;28;20457;-90
2021/09/02 04:09:32;;;;;;;7.33;6.23;;;;;;;;;;4994437;28;20457;-91
2021/09/02 04:11:59;;;;;;;9.40;6.77;;;;;;;;;;4993716;28;20457;-89
2021/09/02 04:14:28;;;;;;;9.70;7.00;;;8.50;99.90;;;;;;4994485;28;20445;-92
2021/09/02 04:16:55;;;;;;;7.70;6.07;;;;;;;;;;4994591;28;20450;-92
2021/09/02 04:19:23;;;;;;;6.50;5.80;;;8.40;99.90;;;;;;4995252;28;20473;-89
2021/09/02 04:21:50;;;;;;;7.87;6.57;;;;;;;;;;4994919;28;20512;-89
2021/09/02 04:24:17;;;;;;;7.93;6.33;;;;;;;;;;4993472;28;20485;-87
2021/09/02 04:26:45;;;;;;;7.23;6.53;;;;;;;;;;4994269;28;20473;-90
2021/09/02 04:29:12;;;;;;;9.20;5.97;;;;;;;;;;4994189;28;20485;-87
2021/09/02 04:31:41;;;;;;;8.70;6.37;;;8.40;99.90;;;;;;4994774;28;20457;-91
2021/09/02 04:34:08;;;;;;;9.63;5.90;;;;;;;;;;4994584;28;20456;-88
2021/09/02 04:36:35;;;;;;;7.97;5.60;;;;;;;;;;4994605;28;20476;-90
2021/09/02 04:39:02;;;;;;;12.03;7.00;;;;;;;;;;4994921;28;20442;-90
2021/09/02 04:41:29;;;;;;;8.83;6.87;;;;;;;;;;4994141;28;20476;-93
2021/09/02 04:43:56;;;;;;;8.23;7.20;;;;;;;;;;4993050;28;20493;-89
2021/09/02 04:46:24;;;;;;;8.80;6.30;;;;;;;;;;4993808;28;20978;-88
2021/09/02 04:48:52;;;;;;;10.00;6.77;;;8.30;99.90;;;;;;4994025;28;20445;-88
2021/09/02 04:51:19;;;;;;;7.70;6.33;;;;;;;;;;4994130;28;20449;-90
2021/09/02 04:53:46;;;;;;;6.83;5.70;;;;;;;;;;4994300;28;20445;-91
2021/09/02 04:56:14;;;;;;;9.50;6.63;;;;;;;;;;4994018;28;20453;-87
2021/09/02 04:58:41;;;;;;;7.23;5.90;;;;;;;;;;4993103;28;20807;-88
2021/09/02 05:01:08;;;;;;;6.77;6.07;;;;;;;;;;4993908;28;20437;-88
2021/09/02 05:03:35;;;;;;;9.47;6.33;;;;;;;;;;4993991;28;20456;-89
2021/09/02 05:06:04;;;;;;;8.47;5.70;;;8.40;99.90;;;;;;4994167;28;20441;-88
2021/09/02 05:08:31;;;;;;;6.67;5.97;;;;;;;;;;4993467;28;20453;-88
2021/09/02 05:10:58;;;;;;;12.30;6.33;;;;;;;;;;4993436;28;20449;-87
2021/09/02 05:13:25;;;;;;;7.73;6.77;;;;;;;;;;4992862;28;20438;-88
2021/09/02 05:15:52;;;;;;;13.70;7.37;;;;;;;;;;4993585;28;20472;-86
2021/09/02 05:18:19;;;;;;;8.00;6.27;;;;;;;;;;4992131;28;20974;-88
2021/09/02 05:20:46;;;;;;;6.97;6.20;;;;;;;;;;4993218;28;20453;-86
2021/09/02 05:23:15;;;;;;;9.50;6.97;;;8.70;99.90;;;;;;4993290;28;20453;-89
2021/09/02 05:25:42;;;;;;;8.23;6.93;;;;;;;;;;4992140;28;20499;-90
2021/09/02 05:28:09;;;;;;;8.93;7.40;;;;;;;;;;4996568;28;20496;-87
2021/09/02 05:30:36;;;;;;;12.20;7.70;;;;;;;;;;4997466;28;20483;-87
2021/09/02 05:33:03;;;;;;;10.93;7.93;;;;;;;;;;4997167;28;20445;-87
2021/09/02 05:35:31;;;;;;;8.83;7.87;;;;;;;;;;4997504;28;20452;-93
2021/09/02 05:37:58;;;;;;;10.50;7.50;;;;;;;;;;4998312;28;20449;-91
2021/09/02 05:40:26;;;;;;;9.80;6.90;;;10.30;99.90;;;;;;4998019;28;21317;-93
2021/09/02 05:42:53;;;;;;;7.63;6.93;;;;;;;;;;4997192;28;20440;-89
2021/09/02 05:45:21;;;;;;;9.10;6.93;;;;;;;;;;4995096;28;20489;-89
2021/09/02 05:47:48;;;;;;;9.30;6.53;;;;;;;;;;4994654;28;20457;-90
2021/09/02 05:50:15;;;;;;;7.30;6.33;;;;;;;;;;4997460;28;20451;-89
2021/09/02 05:52:42;;;;;;;6.90;5.90;;;;;;;;;;4997547;28;20453;-92
2021/09/02 05:55:09;;;;;;;6.40;5.50;;;12.40;99.90;;;;;;5001134;28;20453;-92
2021/09/02 05:57:41;;;;;;;9.03;5.80;;;12.70;99.90;;;;;;4998407;28;20449;-89
2021/09/02 06:00:09;;;;;;;6.97;5.93;;;13.00;99.90;;;;;;4993533;28;20468;-90
2021/09/02 06:02:37;;;;;;;6.30;5.40;;;;;;;;;;4997393;28;20454;-89
2021/09/02 06:05:04;;;;;;;7.17;5.50;;;15.20;99.90;;;;;;4997046;28;20493;-91
2021/09/02 06:07:31;;;;;;;7.23;5.60;;;;;;;;;;4997608;28;20449;-90
2021/09/02 06:09:59;;;;;;;7.43;6.60;;;;;;;;;;4996575;28;20445;-89
2021/09/02 06:12:26;;;;;;;8.03;7.30;;;;;;;;;;4996163;28;20441;-90
2021/09/02 06:14:54;;;;;;;13.53;8.80;;;15.20;99.90;;;;;;4996612;28;20449;-89
2021/09/02 06:17:21;;;;;;;9.93;7.77;;;;;;;;;;4996476;28;20445;-90
2021/09/02 06:19:48;;;;;;;10.60;8.43;;;;;;;;;;4997985;28;20449;-93
2021/09/02 06:22:15;;;;;;;15.57;8.33;;;;;;;;;;4996676;28;20445;-92
2021/09/02 06:24:43;;;;;;;11.20;9.50;;;;;;;;;;4999206;28;20518;-92
2021/09/02 06:27:10;;;;;;;13.00;8.07;;;;;;;;;;4999007;28;20785;-91
2021/09/02 06:29:37;;;;;;;11.10;8.47;;;;;;;;;;4998345;28;20535;-91
2021/09/02 06:32:06;;;;;;;9.63;7.93;;;17.00;99.90;;;;;;4999791;28;20433;-93
2021/09/02 06:34:33;;;;;;;9.20;8.20;;;;;;;;;;4999225;28;20446;-93
2021/09/02 06:37:01;;;;;;;10.50;8.00;;;;;;;;;;4999267;28;20452;-93
2021/09/02 06:39:28;;;;;;;9.03;8.10;;;;;;;;;;4999599;28;20453;-92
2021/09/02 06:41:55;;;;;;;10.47;8.60;;;;;;;;;;5002305;28;20476;-93
2021/09/02 06:44:22;;;;;;;15.57;8.57;;;;;;;;;;5005167;28;20480;-92
2021/09/02 06:46:49;;;;;;;9.60;8.60;;;;;;;;;;5004974;28;20442;-93
2021/09/02 06:49:19;;;;;;;10.13;8.93;;;17.30;99.90;;;;;;4997906;28;20449;-92
2021/09/02 06:51:46;;;;;;;10.80;9.00;;;;;;;;;;4996544;28;21019;-93
2021/09/02 06:54:13;;;;;;;14.30;9.50;;;;;;;;;;4996897;28;20437;-92
2021/09/02 06:56:41;;;;;;;11.43;8.10;;;;;;;;;;5000951;28;20445;-88
2021/09/02 06:59:08;;;;;;;10.40;9.30;;;;;;;;;;5014230;28;20455;-91
2021/09/02 07:01:35;;;;;;;12.93;9.13;;;;;;;;;;5019231;28;20444;-91
2021/09/02 07:04:02;;;;;;;11.40;8.90;;;;;;;;;;5003902;28;20446;-88
2021/09/02 07:06:31;;;;;;;12.27;9.20;;;18.10;99.90;;;;;;4998170;28;20460;-89
2021/09/02 07:08:58;;;;;;;12.57;9.73;;;;;;;;;;4996498;28;20438;-89
2021/09/02 07:11:25;;;;;;;10.03;8.20;;;;;;;;;;4995559;28;20449;-88
2021/09/02 07:13:52;;;;;;;11.23;8.10;;;;;;;;;;4994115;28;20441;-90
2021/09/02 07:16:19;;;;;;;9.13;8.23;;;;;;;;;;4995288;28;20457;-89
2021/09/02 07:18:47;;;;;;;9.47;8.57;;;;;;;;;;4995658;28;20441;-88
2021/09/02 07:21:14;;;;;;;13.17;7.90;;;18.60;99.90;;;;;;4994859;28;20949;-88
2021/09/02 07:23:43;;;;;;;13.30;8.40;;;16.80;99.90;;;;;;4994932;28;20445;-88
2021/09/02 07:26:10;;;;;;;9.20;8.33;;;;;;;;;;4995080;28;20504;-87
2021/09/02 07:28:37;;;;;;;8.00;7.20;;;;;;;;;;4993714;28;20557;-90
2021/09/02 07:31:04;;;;;;;11.03;8.00;;;;;;;;;;4995030;28;20472;-93
2021/09/02 07:33:31;;;;;;;7.97;7.27;;;;;;;;;;4995169;28;20457;-88
2021/09/02 07:35:59;;;;;;;9.23;8.33;;;;;;;;;;4995759;28;20453;-94
2021/09/02 07:38:26;;;;;;;14.17;8.50;;;;;;;;;;4994961;28;20962;-90
2021/09/02 07:40:54;;;;;;;9.40;7.80;;;19.70;99.90;;;;;;4994824;28;20908;-88
2021/09/02 07:43:21;;;;;;;8.77;7.30;;;;;;;;;;4993330;28;20848;-89
2021/09/02 07:45:48;;;;;;;10.80;8.00;;;;;;;;;;4995169;28;20508;-93
2021/09/02 07:48:16;;;;;;;8.90;8.00;;;;;;;;;;4993626;28;20452;-88
2021/09/02 07:50:42;;;;;;;11.03;8.40;;;20.50;99.90;;;;;;4994907;28;20445;-89
2021/09/02 07:53:10;;;;;;;9.20;6.77;;;;;;;;;;5013590;28;20969;-88
2021/09/02 07:55:37;;;;;;;12.33;8.50;;;;;;;;;;5013857;28;20452;-87
2021/09/02 07:58:05;;;;;;;10.00;7.00;;;20.70;99.90;;;;;;5012842;28;20456;-88
2021/09/02 08:00:33;;;;;;;9.37;6.40;;;;;;;;;;5013804;28;20830;-88
2021/09/02 08:03:00;;;;;;;8.20;7.40;;;;;;;;;;5013999;28;20445;-93
2021/09/02 08:05:27;;;;;;;10.53;7.83;;;;;;;;;;5015103;28;20488;-90
2021/09/02 08:07:54;;;;;;;14.53;8.30;;;21.50;99.90;;;;;;5014044;28;20452;-89
2021/09/02 08:10:24;;;;;;;9.10;7.90;;;21.40;99.90;;;;;;5014362;28;20448;-88
2021/09/02 08:12:51;;;;;;;7.30;6.70;;;;;;;;;;5012735;28;20923;-88
2021/09/02 08:15:19;;;;;;;7.60;6.80;;;21.50;99.90;;;;;;5013722;28;20779;-88
2021/09/02 08:17:49;;;;;;;7.97;6.63;;;;;;;;;;5012235;28;20449;-94
2021/09/02 08:20:17;;;;;;;7.93;7.10;;;21.70;99.90;;;;;;5012171;28;20452;-88
2021/09/02 08:22:45;;;;;;;7.83;7.03;;;;;;;;;;5014047;28;20453;-94
2021/09/02 08:25:13;;;;;;;7.00;6.30;;;;;;;;;;5013953;28;20826;-91
2021/09/02 08:27:40;;;;;;;7.63;6.73;;;21.90;99.90;;;;;;5012314;28;20831;-91
2021/09/02 08:30:09;;;;;;;7.23;6.53;;;21.70;99.90;;;;;;5011724;28;20506;-90
2021/09/02 08:32:38;;;;;;;8.67;6.90;;;21.70;99.90;;;;;;4993877;28;20456;-89
2021/09/02 08:35:05;;;;;;;8.00;7.20;;;22.10;99.90;;;;;;4993979;28;20449;-91
2021/09/02 08:37:32;;;;;;;7.57;6.87;;;;;;;;;;4993968;28;20453;-89
2021/09/02 08:39:59;;;;;;;9.47;7.40;;;;;;;;;;5011764;28;20437;-89
2021/09/02 08:42:27;;;;;;;7.57;6.87;;;;;;;;;;5017450;28;20437;-89
2021/09/02 08:44:54;;;;;;;8.30;6.77;;;;;;;;;;4998383;28;20476;-91
2021/09/02 08:47:21;;;;;;;7.57;6.87;;;;;;;;;;4993781;28;20461;-88
2021/09/02 08:49:49;;;;;;;8.60;7.23;;;22.00;99.90;;;;;;4993444;28;20457;-87
2021/09/02 08:52:17;;;;;;;6.90;6.30;;;22.60;99.60;;;;;;4993242;28;20449;-86
2021/09/02 08:54:47;;;;;;;7.33;6.63;;;;;;;;;;5007614;28;20479;-89
2021/09/02 08:57:14;;;;;;;7.23;6.60;;;;;;;;;;5000944;28;20489;-88
2021/09/02 08:59:41;;;;;;;8.30;6.93;;;;;;;;;;5005621;28;20456;-88
2021/09/02 09:02:25;;;;;;;6.83;6.00;;;;;;;;;;5012198;28;20460;-89
2021/09/02 09:05:06;;;;;;;6.50;5.93;;;23.80;99.90;;;;;;5008563;28;20452;-88
2021/09/02 09:07:34;;;;;;;8.80;8.00;;;23.20;99.90;;;;;;4993006;28;20960;-88
2021/09/02 09:10:01;;;;;;;205.13;118.57;;;;;;;;;;4992982;28;20940;-86
2021/09/02 09:12:39;;;;;;;38.87;35.40;;;23.70;99.90;;;;;;4991703;28;20937;-88
2021/09/02 09:15:07;;;;;;;11.87;6.20;;;23.50;99.90;;;;;;5007242;28;20827;-89
2021/09/02 09:17:35;;;;;;;7.13;6.43;;;;;;;;;;5012740;28;20448;-88
2021/09/02 09:20:06;;;;;;;8.23;6.90;;;23.90;99.00;;;;;;5012679;28;20456;-90
2021/09/02 09:22:34;;;;;;;7.37;6.67;;;;;;;;;;5012699;28;20460;-90
2021/09/02 09:25:03;;;;;;;7.20;6.50;;;24.30;99.00;;;;;;5012473;28;20939;-88
2021/09/02 09:27:37;;;;;;;7.27;6.40;;;23.80;99.90;;;;;;5011280;28;21050;-88
2021/09/02 09:30:16;;;;;;;6.63;5.93;;;23.00;96.70;;;;;;5012154;28;20483;-87
2021/09/02 09:32:48;;;;;;;13.53;6.40;;;23.00;96.90;;;;;;5012138;28;20466;-88
2021/09/02 09:35:19;;;;;;;8.30;6.10;;;23.20;97.40;;;;;;5012429;28;20592;-86
2021/09/02 09:37:47;;;;;;;8.10;6.33;;;23.70;97.40;;;;;;5011896;28;20451;-86
2021/09/02 09:40:20;;;;;;;10.90;6.10;;;23.50;96.40;;;;;;5011468;28;20453;-86
2021/09/02 09:42:57;;;;;;;7.70;7.00;;;;;;;;;;4999040;28;20453;-88
2021/09/02 09:45:33;;;;;;;6.30;5.70;;;;;;;;;;5012015;28;20491;-92
2021/09/02 09:48:00;;;;;;;7.27;6.20;;;;;;;;;;5014041;28;20452;-92
2021/09/02 09:50:28;;;;;;;6.20;5.60;;;23.90;98.10;;;;;;5013514;28;20463;-91
2021/09/02 09:52:57;;;;;;;8.03;5.30;;;;;;;;;;5013350;28;20954;-93
2021/09/02 09:55:24;;;;;;;7.43;5.97;;;;;;;;;;5013925;28;20559;-89
2021/09/02 09:57:51;;;;;;;7.03;5.43;;;;;;;;;;5011681;28;20441;-89
2021/09/02 10:00:20;;;;;;;6.67;5.97;;;23.40;97.30;;;;;;5012595;28;20441;-89
2021/09/02 10:02:48;;;;;;;6.50;5.90;;;23.50;97.00;;;;;;5012573;28;20444;-92
2021/09/02 10:05:17;;;;;;;6.80;5.93;;;22.80;97.90;;;;;;5012945;28;20476;-87
2021/09/02 10:07:47;;;;;;;7.27;6.60;;;23.30;97.90;;;;;;5012544;28;20448;-89
2021/09/02 10:10:16;;;;;;;5.90;5.17;;;23.60;96.60;;;;;;5012578;28;20448;-87
2021/09/02 10:12:44;;;;;;;8.27;5.07;;;;;;;;;;5012732;28;20461;-93
2021/09/02 10:15:13;;;;;;;8.40;5.10;;;23.40;95.90;;;;;;5015981;28;20456;-88
2021/09/02 10:17:42;;;;;;;7.87;5.40;;;23.30;98.20;;;;;;5015599;28;20452;-96
2021/09/02 10:20:17;;;;;;;7.90;5.57;;;23.60;94.70;;;;;;5016345;28;20479;-88
2021/09/02 10:22:46;;;;;;;7.10;5.50;;;23.40;96.40;;;;;;5016259;28;20444;-93
2021/09/02 10:25:37;;;;;;;9.47;5.30;;;23.40;95.30;;;;;;5003785;28;20453;-91
2021/09/02 10:28:08;;;;;;;8.30;5.90;;;23.60;96.70;;;;;;5002099;28;20532;-93
2021/09/02 10:30:41;;;;;;;11.93;6.47;;;23.80;96.20;;;;;;5016650;28;21085;-91
2021/09/02 10:33:33;;;;;;;7.43;6.20;;;24.10;94.80;;;;;;4998273;28;20445;-94
2021/09/02 10:36:00;;;;;;;6.70;5.33;;;;;;;;;;5009032;28;20520;-93
2021/09/02 10:38:40;;;;;;;10.87;5.63;;;23.10;96.10;;;;;;5018365;28;20445;-89
2021/09/02 10:41:07;;;;;;;7.13;6.23;;;;;;;;;;5017243;28;20449;-87
2021/09/02 10:43:51;;;;;;;7.07;5.73;;;23.30;95.20;;;;;;5016571;28;20451;-88
2021/09/02 10:46:42;;;;;;;7.00;6.30;;;23.60;95.60;;;;;;5015869;28;20467;-86
2021/09/02 10:49:27;;;;;;;6.10;5.50;;;23.80;94.20;;;;;;5015344;28;20452;-88
2021/09/02 10:51:56;;;;;;;7.50;5.33;;;23.60;94.60;;;;;;5016877;28;20826;-94
2021/09/02 10:54:30;;;;;;;8.20;5.67;;;22.80;95.30;;;;;;5018721;28;20451;-91
2021/09/02 10:57:06;;;;;;;6.83;5.30;;;23.20;94.80;;;;;;5013490;28;20530;-86
2021/09/02 10:59:44;;;;;;;9.30;6.23;;;23.80;94.10;;;;;;5009212;28;20548;-89
2021/09/02 11:02:27;;;;;;;6.63;5.90;;;24.00;94.00;;;;;;4996704;28;20460;-87
2021/09/02 11:04:59;;;;;;;6.27;5.30;;;24.70;93.90;;;;;;5014926;28;20463;-87
2021/09/02 11:07:35;;;;;;;6.27;5.67;;;24.80;92.80;;;;;;5014924;28;20496;-87
2021/09/02 11:10:09;;;;;;;7.60;5.40;;;24.40;92.60;;;;;;5014967;28;20825;-90
2021/09/02 11:12:36;;;;;;;8.90;5.60;;;;;;;;;;5014086;28;20457;-91
2021/09/02 11:15:04;;;;;;;5.63;3.60;;;;;;;;;;5014524;28;20532;-90
2021/09/02 11:17:31;;;;;;;14.00;11.90;;;;;;;;;;5015493;28;20444;-90
2021/09/02 11:19:58;;;;;;;5.10;4.40;;;;;;;;;;5013950;28;20441;-89
2021/09/02 11:22:25;;;;;;;6.83;4.87;;;;;;;;;;5015194;28;20449;-87
2021/09/02 11:24:54;;;;;;;6.40;5.13;;;23.50;93.90;;;;;;5013925;28;20453;-89
2021/09/02 11:27:30;;;;;;;6.70;5.70;;;25.00;97.10;;;;;;5013699;28;20481;-88
2021/09/02 11:30:14;;;;;;;6.00;5.40;;;23.90;99.90;;;;;;5013175;28;20510;-91
2021/09/02 11:32:42;;;;;;;6.97;5.00;;;;;;;;;;5013548;28;20472;-87
2021/09/02 11:35:10;;;;;;;6.53;5.80;;;23.30;93.90;;;;;;5016223;28;20473;-88
2021/09/02 11:37:39;;;;;;;5.20;4.43;;;22.90;93.60;;;;;;5013403;28;20456;-88
2021/09/02 11:40:07;;;;;;;5.03;4.50;;;23.50;95.40;;;;;;5015484;28;20943;-93
2021/09/02 11:42:36;;;;;;;5.10;4.00;;;23.40;92.20;;;;;;5014232;28;20441;-90
2021/09/02 11:45:03;;;;;;;4.90;4.30;;;;;;;;;;5014806;28;20455;-90
2021/09/02 11:47:34;;;;;;;7.80;4.73;;;23.80;99.90;;;;;;5014498;28;20476;-90
2021/09/02 11:50:01;;;;;;;4.97;4.47;;;;;;;;;;5014801;28;20448;-90
2021/09/02 11:52:38;;;;;;;5.53;4.00;;;24.10;92.40;;;;;;5014373;28;20502;-89
2021/09/02 11:55:07;;;;;;;7.33;5.20;;;24.00;94.30;;;;;;5030065;28;20448;-91
2021/09/02 11:57:36;;;;;;;7.03;4.17;;;23.40;91.70;;;;;;5008942;28;20448;-87
2021/09/02 12:00:03;;;;;;;5.40;4.33;;;;;;;;;;5016881;28;20515;-91
2021/09/02 12:02:30;;;;;;;4.53;4.13;;;;;;;;;;5015776;28;20506;-91
2021/09/02 12:04:57;;;;;;;5.07;4.10;;;;;;;;;;5014425;28;20444;-90
2021/09/02 12:07:24;;;;;;;6.73;4.70;;;;;;;;;;5014662;28;20521;-91
2021/09/02 12:09:52;;;;;;;4.43;4.00;;;;;;;;;;5014236;28;20978;-88
2021/09/02 12:12:30;;;;;;;7.77;4.37;;;23.20;91.60;;;;;;5013136;28;20441;-93
2021/09/02 12:14:58;;;;;;;5.80;4.83;;;22.70;92.20;;;;;;5014215;28;20437;-89
2021/09/02 12:17:32;;;;;;;6.10;4.30;;;23.30;91.40;;;;;;5014547;28;20448;-89
2021/09/02 12:20:00;;;;;;;5.40;3.90;;;23.60;91.20;;;;;;5012644;28;20440;-87
2021/09/02 12:22:32;;;;;;;5.43;4.03;;;23.50;90.80;;;;;;4992250;28;20528;-88
2021/09/02 12:25:10;;;;;;;7.70;4.00;;;22.80;99.90;;;;;;4994183;28;20461;-88
2021/09/02 12:27:45;;;;;;;6.30;4.23;;;23.50;95.10;;;;;;4993598;28;20503;-91
2021/09/02 12:30:14;;;;;;;4.07;3.40;;;22.90;99.90;;;;;;4990422;28;20476;-89
2021/09/02 12:32:42;;;;;;;4.50;3.80;;;23.10;90.90;;;;;;4994407;28;20461;-94
2021/09/02 12:35:15;;;;;;;7.33;4.70;;;23.40;90.40;;;;;;5000074;28;20460;-89
2021/09/02 12:37:42;;;;;;;4.73;3.67;;;;;;;;;;4993455;28;20437;-90
2021/09/02 12:40:13;;;;;;;13.80;4.07;;;24.10;90.30;;;;;;4994858;28;20442;-92
2021/09/02 12:42:41;;;;;;;6.23;4.00;;;;;;;;;;4995343;28;20429;-91
2021/09/02 12:45:09;;;;;;;5.33;4.07;;;23.80;92.10;;;;;;5014174;28;20458;-91
2021/09/02 12:47:38;;;;;;;4.67;4.17;;;24.40;89.20;;;;;;5010748;28;20480;-91
2021/09/02 12:50:16;;;;;;;6.77;4.00;;;24.60;99.90;;;;;;5014050;28;20903;-90
2021/09/02 12:52:43;;;;;;;6.50;4.47;;;;;;;;;;4953457;29;20446;-91
2021/09/02 12:55:15;;;;;;;5.90;3.80;;;23.90;94.30;;;;;;4953259;29;20455;-87
2021/09/02 12:57:44;;;;;;;7.40;5.47;;;23.30;89.50;;;;;;4946743;29;20583;-90
2021/09/02 13:00:13;;;;;;;3.70;3.40;;;23.90;89.10;;;;;;4950561;29;20454;-88
2021/09/02 13:02:42;;;;;;;5.47;4.50;;;24.10;90.80;;;;;;4953357;29;20471;-92
2021/09/02 13:05:10;;;;;;;5.07;4.07;;;24.20;99.90;;;;;;4950787;29;20475;-90
2021/09/02 13:07:47;;;;;;;7.70;4.90;;;24.80;89.20;;;;;;4950154;29;20502;-90
2021/09/02 13:10:15;;;;;;;9.40;4.80;;;;;;;;;;4962704;28;20455;-90
2021/09/02 13:12:48;;;;;;;5.17;4.10;;;25.30;90.30;;;;;;5012582;28;20554;-91
2021/09/02 13:15:29;;;;;;;5.90;4.03;;;25.00;99.90;;;;;;5013159;28;20460;-90
2021/09/02 13:17:58;;;;;;;7.33;4.40;;;24.90;90.10;;;;;;4995660;28;20461;-91
2021/09/02 13:20:25;;;;;;;6.23;4.27;;;;;;;;;;5010213;28;20444;-91
2021/09/02 13:22:52;;;;;;;9.50;5.10;;;;;;;;;;5014438;28;20455;-92
2021/09/02 13:25:22;;;;;;;5.43;4.00;;;24.20;88.00;;;;;;5015143;28;20543;-91
2021/09/02 13:27:49;;;;;;;4.50;4.10;;;24.00;90.00;;;;;;5014013;28;20503;-91
2021/09/02 13:30:22;;;;;;;5.20;4.70;;;24.00;90.10;;;;;;5014169;28;20484;-92
2021/09/02 13:32:53;;;;;;;5.03;4.53;;;24.40;99.90;;;;;;5014141;28;20475;-93
2021/09/02 13:35:21;;;;;;;5.70;4.03;;;24.90;88.90;;;;;;5015435;28;20483;-90
2021/09/02 13:37:49;;;;;;;4.27;3.87;;;;;;;;;;5015509;28;20816;-91
2021/09/02 13:40:18;;;;;;;4.70;4.20;;;24.40;91.10;;;;;;5017062;28;20448;-91
2021/09/02 13:42:46;;;;;;;5.37;4.87;;;24.50;89.30;;;;;;5016902;28;20440;-89
2021/09/02 13:45:14;;;;;;;4.90;4.00;;;;;;;;;;5013380;28;20456;-91
2021/09/02 13:47:43;;;;;;;5.00;4.50;;;;;;;;;;5015095;28;20495;-91
2021/09/02 13:50:10;;;;;;;4.80;4.30;;;;;;;;;;5017981;28;20448;-89
2021/09/02 13:52:39;;;;;;;5.23;4.10;;;24.20;91.30;;;;;;5016966;28;20449;-89
2021/09/02 13:55:07;;;;;;;6.03;4.20;;;24.70;89.00;;;;;;5016945;28;20934;-92
2021/09/02 13:57:34;;;;;;;6.57;4.60;;;;;;;;;;5016190;28;20448;-91
2021/09/02 14:00:02;;;;;;;7.03;4.27;;;;;;;;;;5016924;28;20463;-91
2021/09/02 14:02:29;;;;;;;5.50;4.60;;;;;;;;;;5017048;28;20436;-91
2021/09/02 14:04:56;;;;;;;6.10;4.37;;;;;;;;;;5016680;28;20476;-89